createdAt,value
2023-05-05T00:01:15.848Z,4.55
2023-05-05T00:03:42.838Z,4.10
2023-05-05T00:06:09.704Z,4.53
2023-05-05T00:08:36.561Z,5.43
2023-05-05T00:11:04.734Z,4.53
2023-05-05T00:13:31.537Z,4.40
2023-05-05T00:15:58.364Z,3.90
2023-05-05T00:18:25.203Z,4.28
2023-05-05T00:20:52.160Z,3.85
2023-05-05T00:23:19.613Z,4.28
2023-05-05T00:25:46.407Z,3.80
2023-05-05T00:28:14.554Z,4.22
2023-05-05T00:30:41.423Z,3.70
2023-05-05T00:33:08.404Z,3.53
2023-05-05T00:35:35.268Z,4.15
2023-05-05T00:38:02.026Z,4.13
2023-05-05T00:40:28.894Z,3.80
2023-05-05T00:42:55.833Z,4.25
2023-05-05T00:45:23.929Z,4.10
2023-05-05T00:47:53.443Z,4.00
2023-05-05T00:50:23.061Z,4.50
2023-05-05T00:52:51.039Z,3.58
2023-05-05T00:55:18.233Z,3.95
2023-05-05T00:57:45.663Z,3.83
2023-05-05T01:00:13.119Z,4.00
2023-05-05T01:02:41.405Z,4.50
2023-05-05T01:05:09.538Z,3.72
2023-05-05T01:07:45.243Z,3.90
2023-05-05T01:10:21.303Z,3.67
2023-05-05T01:13:00.602Z,3.88
2023-05-05T01:15:33.394Z,3.67
2023-05-05T01:18:09.503Z,3.90
2023-05-05T01:20:44.149Z,3.60
2023-05-05T01:23:17.837Z,4.03
2023-05-05T01:26:07.508Z,3.80
2023-05-05T01:28:59.439Z,3.75
2023-05-05T01:31:50.152Z,3.50
2023-05-05T01:34:22.172Z,3.40
2023-05-05T01:36:56.617Z,3.47
2023-05-05T01:39:27.869Z,3.90
2023-05-05T01:41:59.346Z,3.92
2023-05-05T01:44:27.781Z,3.75
2023-05-05T01:46:58.001Z,3.60
2023-05-05T01:49:26.058Z,3.72
2023-05-05T01:51:53.478Z,3.58
2023-05-05T01:54:20.957Z,3.53
2023-05-05T01:56:49.126Z,3.78
2023-05-05T01:59:17.098Z,3.60
2023-05-05T02:01:45.804Z,4.07
2023-05-05T02:04:14.886Z,3.70
2023-05-05T02:06:44.147Z,3.85
2023-05-05T02:09:14.882Z,3.35
2023-05-05T02:11:42.108Z,3.33
2023-05-05T02:14:10.592Z,3.90
2023-05-05T02:16:38.581Z,3.30
2023-05-05T02:19:05.761Z,3.70
2023-05-05T02:21:34.238Z,3.42
2023-05-05T02:24:01.897Z,3.60
2023-05-05T02:26:33.699Z,3.80
2023-05-05T02:29:05.381Z,3.80
2023-05-05T02:31:34.443Z,3.67
2023-05-05T02:34:03.388Z,4.32
2023-05-05T02:36:37.066Z,3.60
2023-05-05T02:39:08.746Z,3.45
2023-05-05T02:41:38.082Z,3.67
2023-05-05T02:44:06.429Z,3.60
2023-05-05T02:46:33.283Z,3.70
2023-05-05T02:49:00.057Z,3.53
2023-05-05T02:51:26.875Z,3.90
2023-05-05T02:53:55.127Z,3.50
2023-05-05T02:56:32.212Z,3.40
2023-05-05T02:59:14.472Z,3.40
2023-05-05T03:01:54.691Z,3.60
2023-05-05T03:04:25.742Z,3.53
2023-05-05T03:06:57.372Z,3.97
2023-05-05T03:09:30.278Z,3.60
2023-05-05T03:12:01.178Z,3.30
2023-05-05T03:14:32.809Z,4.10
2023-05-05T03:17:01.674Z,3.22
2023-05-05T03:19:29.360Z,3.22
2023-05-05T03:21:56.707Z,3.28
2023-05-05T03:24:23.415Z,2.97
2023-05-05T03:26:51.498Z,3.15
2023-05-05T03:29:18.247Z,3.60
2023-05-05T03:31:45.053Z,3.50
2023-05-05T03:34:11.881Z,3.42
2023-05-05T03:36:39.099Z,3.55
2023-05-05T03:39:05.958Z,3.88
2023-05-05T03:41:32.704Z,3.70
2023-05-05T03:44:01.025Z,3.63
2023-05-05T03:46:27.785Z,3.60
2023-05-05T03:48:54.521Z,3.85
2023-05-05T03:51:21.314Z,3.53
2023-05-05T03:53:48.042Z,3.53
2023-05-05T03:56:14.801Z,3.40
2023-05-05T03:58:41.569Z,3.85
2023-05-05T04:01:09.740Z,3.65
2023-05-05T04:03:36.511Z,3.45
2023-05-05T04:06:03.452Z,3.58
2023-05-05T04:08:30.180Z,3.40
2023-05-05T04:10:56.990Z,3.80
2023-05-05T04:13:23.804Z,3.92
2023-05-05T04:15:50.783Z,4.10
2023-05-05T04:18:18.893Z,3.95
2023-05-05T04:20:45.643Z,3.50
2023-05-05T04:23:12.409Z,3.88
2023-05-05T04:25:39.142Z,3.60
2023-05-05T04:28:05.931Z,4.68
2023-05-05T04:30:32.688Z,3.42
2023-05-05T04:32:59.482Z,3.83
2023-05-05T04:35:27.636Z,4.45
2023-05-05T04:37:54.392Z,4.20
2023-05-05T04:40:21.124Z,3.78
2023-05-05T04:42:47.872Z,4.05
2023-05-05T04:45:14.840Z,3.97
2023-05-05T04:47:41.678Z,3.63
2023-05-05T04:50:09.955Z,3.90
2023-05-05T04:52:38.233Z,6.80
2023-05-05T04:55:05.856Z,4.20
2023-05-05T04:57:32.634Z,4.35
2023-05-05T05:00:00.775Z,4.22
2023-05-05T05:02:27.534Z,4.30
2023-05-05T05:04:54.249Z,4.30
2023-05-05T05:07:21.032Z,4.30
2023-05-05T05:09:49.150Z,3.92
2023-05-05T05:12:15.982Z,3.10
2023-05-05T05:14:42.693Z,3.83
2023-05-05T05:17:09.624Z,3.13
2023-05-05T05:19:36.491Z,4.95
2023-05-05T05:22:03.250Z,3.53
2023-05-05T05:24:29.979Z,3.92
2023-05-05T05:26:58.074Z,3.08
2023-05-05T05:29:24.882Z,3.53
2023-05-05T05:31:51.693Z,3.35
2023-05-05T05:34:18.494Z,3.22
2023-05-05T05:36:45.246Z,3.70
2023-05-05T05:39:11.988Z,3.17
2023-05-05T05:41:38.735Z,4.63
2023-05-05T05:44:06.930Z,3.85
2023-05-05T05:46:33.758Z,4.00
2023-05-05T05:49:00.463Z,3.60
2023-05-05T05:51:27.207Z,4.03
2023-05-05T05:53:53.977Z,3.60
2023-05-05T05:56:20.704Z,3.60
2023-05-05T05:58:47.470Z,3.83
2023-05-05T06:01:15.621Z,3.03
2023-05-05T06:03:42.478Z,3.10
2023-05-05T06:06:09.317Z,3.00
2023-05-05T06:08:36.080Z,2.90
2023-05-05T06:11:02.863Z,2.78
2023-05-05T06:13:29.677Z,2.72
2023-05-05T06:15:57.562Z,2.88
2023-05-05T06:18:26.034Z,2.90
2023-05-05T06:20:52.851Z,3.10
2023-05-05T06:23:19.586Z,3.00
2023-05-05T06:25:46.337Z,3.40
2023-05-05T06:28:13.195Z,2.90
2023-05-05T06:30:40.056Z,2.97
2023-05-05T06:33:06.894Z,2.70
2023-05-05T06:35:35.120Z,2.42
2023-05-05T06:38:01.856Z,3.50
2023-05-05T06:40:28.679Z,2.35
2023-05-05T06:42:55.549Z,2.78
2023-05-05T06:45:22.352Z,2.95
2023-05-05T06:47:49.240Z,2.50
2023-05-05T06:50:16.058Z,2.70
2023-05-05T06:52:44.202Z,2.88
2023-05-05T06:55:10.969Z,2.80
2023-05-05T06:57:37.816Z,2.67
2023-05-05T07:00:05.697Z,2.60
2023-05-05T07:02:32.820Z,2.50
2023-05-05T07:04:59.581Z,2.78
2023-05-05T07:07:26.348Z,2.67
2023-05-05T07:09:54.482Z,2.30
2023-05-05T07:12:21.326Z,2.55
2023-05-05T07:14:48.055Z,2.28
2023-05-05T07:17:14.926Z,2.47
2023-05-05T07:19:41.672Z,2.47
2023-05-05T07:22:08.427Z,2.50
2023-05-05T07:24:35.215Z,2.83
2023-05-05T07:27:03.418Z,2.70
2023-05-05T07:29:30.372Z,2.78
2023-05-05T07:31:57.196Z,2.63
2023-05-05T07:34:24.044Z,2.70
2023-05-05T07:36:50.935Z,2.97
2023-05-05T07:39:17.713Z,2.75
2023-05-05T07:41:44.515Z,2.70
2023-05-05T07:44:12.612Z,2.90
2023-05-05T07:46:39.398Z,3.05
2023-05-05T07:49:06.165Z,2.70
2023-05-05T07:51:34.502Z,2.80
2023-05-05T07:54:01.897Z,2.90
2023-05-05T07:56:28.704Z,2.78
2023-05-05T07:58:55.560Z,3.00
2023-05-05T08:01:23.695Z,3.03
2023-05-05T08:03:50.682Z,2.90
2023-05-05T08:06:17.520Z,2.70
2023-05-05T08:08:44.325Z,3.20
2023-05-05T08:11:11.073Z,2.92
2023-05-05T08:13:37.928Z,2.80
2023-05-05T08:16:05.249Z,2.67
2023-05-05T08:18:33.348Z,2.83
2023-05-05T08:21:00.251Z,2.70
2023-05-05T08:23:26.976Z,2.70
2023-05-05T08:25:53.877Z,3.20
2023-05-05T08:28:20.628Z,2.70
2023-05-05T08:30:47.560Z,2.53
2023-05-05T08:33:14.394Z,2.95
2023-05-05T08:35:42.783Z,2.83
2023-05-05T08:38:10.881Z,2.70
2023-05-05T08:40:38.893Z,3.05
2023-05-05T08:43:05.976Z,3.00
2023-05-05T08:45:33.076Z,2.67
2023-05-05T08:48:02.595Z,2.95
2023-05-05T08:50:31.075Z,2.63
2023-05-05T08:53:08.782Z,2.80
2023-05-05T08:55:40.486Z,2.80
2023-05-05T08:58:08.046Z,2.38
2023-05-05T09:00:35.864Z,3.00
2023-05-05T09:03:03.793Z,3.13
2023-05-05T09:05:30.811Z,2.92
2023-05-05T09:07:59.369Z,2.80
2023-05-05T09:10:26.736Z,2.85
2023-05-05T09:12:53.545Z,2.88
2023-05-05T09:15:20.408Z,2.80
2023-05-05T09:17:47.346Z,3.10
2023-05-05T09:20:14.875Z,2.85
2023-05-05T09:22:43.456Z,2.90
2023-05-05T09:25:13.185Z,2.80
2023-05-05T09:27:41.652Z,3.20
2023-05-05T09:30:09.847Z,3.05
2023-05-05T09:32:46.766Z,3.58
2023-05-05T09:35:14.236Z,3.25
2023-05-05T09:37:41.188Z,2.90
2023-05-05T09:40:09.511Z,2.72
2023-05-05T09:42:38.705Z,3.10
2023-05-05T09:45:25.149Z,3.03
2023-05-05T09:47:56.547Z,3.20
2023-05-05T09:50:26.352Z,2.70
2023-05-05T09:52:56.717Z,2.90
2023-05-05T09:55:26.324Z,2.90
2023-05-05T09:57:57.659Z,2.80
2023-05-05T10:00:38.039Z,3.03
2023-05-05T10:03:04.820Z,2.63
2023-05-05T10:05:31.802Z,3.00
2023-05-05T10:08:12.302Z,3.17
2023-05-05T10:10:46.086Z,2.30
2023-05-05T10:13:15.541Z,2.17
2023-05-05T10:15:44.440Z,2.40
2023-05-05T10:18:14.375Z,2.55
2023-05-05T10:20:42.314Z,3.25
2023-05-05T10:23:12.856Z,2.50
2023-05-05T10:25:46.419Z,2.55
2023-05-05T10:28:19.908Z,2.67
2023-05-05T10:35:53.164Z,2.15
2023-05-05T10:38:20.628Z,2.08
2023-05-05T10:40:48.452Z,1.90
2023-05-05T10:43:17.718Z,1.83
2023-05-05T10:45:45.325Z,1.83
2023-05-05T10:48:18.642Z,1.92
2023-05-05T10:50:52.566Z,2.20
2023-05-05T10:53:23.781Z,2.10
2023-05-05T10:56:02.327Z,1.98
2023-05-05T10:58:43.736Z,1.83
2023-05-05T11:01:29.455Z,1.80
2023-05-05T11:04:17.904Z,2.50
2023-05-05T11:07:21.793Z,2.40
2023-05-05T11:09:56.569Z,1.88
2023-05-05T11:12:23.447Z,1.90
2023-05-05T11:15:23.532Z,2.00
2023-05-05T11:17:52.289Z,2.10
2023-05-05T11:21:12.035Z,1.95
2023-05-05T11:23:38.837Z,2.10
2023-05-05T11:26:05.938Z,2.00
2023-05-05T11:28:32.852Z,1.95
2023-05-05T11:31:19.977Z,2.55
2023-05-05T11:33:48.259Z,2.30
2023-05-05T11:36:16.299Z,2.17
2023-05-05T11:39:04.341Z,2.70
2023-05-05T11:41:56.079Z,2.28
2023-05-05T11:44:30.734Z,2.65
2023-05-05T11:47:29.357Z,2.17
2023-05-05T11:49:57.737Z,2.10
2023-05-05T11:52:26.032Z,2.40
2023-05-05T11:54:53.010Z,2.60
2023-05-05T11:57:26.879Z,1.85
2023-05-05T11:59:55.438Z,2.40
2023-05-05T12:02:22.859Z,2.08
2023-05-05T12:04:50.731Z,2.20
2023-05-05T12:07:20.840Z,2.00
2023-05-05T12:09:49.050Z,2.50
2023-05-05T12:12:16.568Z,2.67
2023-05-05T12:14:48.308Z,2.40
2023-05-05T12:17:15.081Z,2.55
2023-05-05T12:19:46.732Z,2.70
2023-05-05T12:22:20.551Z,2.72
2023-05-05T12:24:57.149Z,2.53
2023-05-05T12:27:25.075Z,2.70
2023-05-05T12:29:52.613Z,2.25
2023-05-05T12:32:21.035Z,2.83
2023-05-05T12:34:48.864Z,2.72
2023-05-05T12:37:16.225Z,2.35
2023-05-05T12:39:44.564Z,2.33
2023-05-05T12:42:11.355Z,2.50
2023-05-05T12:44:39.303Z,2.83
2023-05-05T12:47:06.291Z,2.50
2023-05-05T12:49:45.314Z,2.55
2023-05-05T12:52:12.055Z,2.63
2023-05-05T12:54:54.869Z,2.38
2023-05-05T12:57:22.104Z,3.00
2023-05-05T12:59:49.196Z,3.50
2023-05-05T13:02:15.976Z,3.80
2023-05-05T13:04:50.359Z,3.70
2023-05-05T13:07:18.041Z,3.60
2023-05-05T13:09:45.285Z,3.80
2023-05-05T13:12:13.665Z,3.72
2023-05-05T13:14:40.984Z,3.90
2023-05-05T13:17:08.143Z,3.50
2023-05-05T13:19:35.072Z,3.40
2023-05-05T13:22:02.065Z,3.47
2023-05-05T13:24:42.313Z,3.20
2023-05-05T13:27:15.250Z,3.40
2023-05-05T13:29:41.989Z,3.20
2023-05-05T13:32:08.818Z,3.13
2023-05-05T13:34:35.582Z,2.95
2023-05-05T13:37:02.420Z,3.60
2023-05-05T13:39:29.155Z,2.90
2023-05-05T13:41:55.909Z,2.70
2023-05-05T13:44:23.947Z,2.63
2023-05-05T13:46:50.696Z,2.70
2023-05-05T13:49:17.589Z,2.72
2023-05-05T13:51:44.329Z,3.15
2023-05-05T13:54:11.135Z,2.53
2023-05-05T13:56:37.895Z,2.83
2023-05-05T13:59:04.671Z,2.80
2023-05-05T14:01:32.835Z,3.20
2023-05-05T14:04:00.459Z,3.30
2023-05-05T14:06:28.245Z,3.50
2023-05-05T14:08:54.999Z,3.22
2023-05-05T14:11:21.735Z,2.58
2023-05-05T14:13:48.603Z,3.10
2023-05-05T14:16:15.520Z,2.90
2023-05-05T14:18:43.756Z,2.85
2023-05-05T14:21:10.588Z,2.58
2023-05-05T14:23:37.369Z,3.80
2023-05-05T14:26:04.159Z,3.03
2023-05-05T14:28:31.042Z,2.65
2023-05-05T14:30:57.795Z,2.83
2023-05-05T14:33:24.603Z,3.13
2023-05-05T14:35:52.900Z,3.13
2023-05-05T14:38:19.741Z,2.92
2023-05-05T14:40:46.615Z,2.60
2023-05-05T14:43:13.357Z,2.60
2023-05-05T14:45:40.180Z,2.80
2023-05-05T14:48:07.005Z,2.45
2023-05-05T14:50:33.752Z,2.60
2023-05-05T14:53:01.893Z,2.83
2023-05-05T14:55:28.697Z,2.60
2023-05-05T14:57:55.421Z,2.72
2023-05-05T15:00:22.355Z,2.70
2023-05-05T15:02:49.250Z,2.95
2023-05-05T15:05:16.248Z,4.13
2023-05-05T15:07:43.212Z,3.10
2023-05-05T15:10:11.686Z,4.00
2023-05-05T15:12:38.469Z,3.70
2023-05-05T15:15:06.156Z,4.13
2023-05-05T15:17:32.993Z,3.40
2023-05-05T15:19:59.859Z,3.53
2023-05-05T15:22:26.624Z,3.60
2023-05-05T15:24:53.411Z,3.10
2023-05-05T15:27:21.595Z,3.25
2023-05-05T15:29:48.345Z,3.63
2023-05-05T15:32:15.141Z,3.70
2023-05-05T15:34:41.894Z,3.33
2023-05-05T15:37:08.649Z,3.50
2023-05-05T15:39:35.415Z,3.42
2023-05-05T15:42:02.255Z,3.30
2023-05-05T15:44:30.465Z,3.90
2023-05-05T15:46:57.439Z,3.83
2023-05-05T15:49:24.274Z,3.90
2023-05-05T15:51:51.046Z,3.90
2023-05-05T15:54:17.904Z,3.53
2023-05-05T15:56:44.686Z,3.72
2023-05-05T15:59:11.415Z,3.53
2023-05-05T16:01:39.629Z,3.25
2023-05-05T16:04:06.501Z,3.40
2023-05-05T16:06:33.262Z,3.28
2023-05-05T16:09:00.027Z,3.47
2023-05-05T16:11:26.877Z,4.10
2023-05-05T16:13:53.663Z,3.95
2023-05-05T16:16:20.658Z,3.60
2023-05-05T16:18:48.930Z,4.35
2023-05-05T16:21:15.670Z,3.50
2023-05-05T16:23:42.498Z,4.13
2023-05-05T16:26:09.290Z,3.83
2023-05-05T16:28:36.116Z,3.80
2023-05-05T16:31:02.848Z,4.28
2023-05-05T16:33:29.696Z,3.53
2023-05-05T16:35:57.997Z,3.53
2023-05-05T16:38:24.763Z,3.30
2023-05-05T16:40:51.503Z,3.40
2023-05-05T16:43:18.304Z,4.22
2023-05-05T16:45:47.978Z,4.57
2023-05-05T16:48:14.840Z,5.00
2023-05-05T16:50:41.703Z,5.28
2023-05-05T16:53:09.876Z,5.70
2023-05-05T16:55:36.860Z,5.47
2023-05-05T16:58:03.660Z,6.32
2023-05-05T17:00:30.469Z,5.07
2023-05-05T17:02:57.309Z,5.85
2023-05-05T17:05:24.070Z,5.70
2023-05-05T17:07:51.182Z,5.68
2023-05-05T17:10:19.303Z,5.45
2023-05-05T17:12:46.194Z,5.40
2023-05-05T17:15:13.006Z,5.88
2023-05-05T17:17:41.533Z,5.53
2023-05-05T17:20:10.853Z,4.80
2023-05-05T17:22:37.559Z,5.70
2023-05-05T17:25:04.931Z,4.78
2023-05-05T17:27:33.070Z,5.20
2023-05-05T17:29:59.854Z,5.47
2023-05-05T17:32:26.672Z,5.30
2023-05-05T17:34:53.462Z,5.05
2023-05-05T17:37:20.184Z,4.82
2023-05-05T17:39:46.942Z,4.25
2023-05-05T17:42:13.669Z,4.35
2023-05-05T17:44:41.756Z,4.05
2023-05-05T17:47:08.471Z,4.30
2023-05-05T17:49:35.255Z,3.85
2023-05-05T17:52:02.081Z,4.28
2023-05-05T17:54:28.876Z,4.15
2023-05-05T17:56:55.605Z,4.40
2023-05-05T17:59:22.333Z,3.95
2023-05-05T18:01:50.438Z,4.50
2023-05-05T18:04:17.204Z,4.22
2023-05-05T18:06:43.954Z,4.38
2023-05-05T18:09:11.397Z,4.30
2023-05-05T18:11:38.247Z,4.55
2023-05-05T18:14:05.054Z,5.35
2023-05-05T18:16:31.804Z,5.03
2023-05-05T18:18:59.909Z,5.07
2023-05-05T18:21:26.663Z,6.40
2023-05-05T18:23:55.652Z,4.68
2023-05-05T18:26:26.307Z,4.60
2023-05-05T18:28:53.060Z,4.78
2023-05-05T18:31:19.871Z,4.90
2023-05-05T18:33:47.828Z,5.35
2023-05-05T18:36:16.062Z,7.35
2023-05-05T18:38:42.851Z,5.90
2023-05-05T18:41:09.740Z,5.70
2023-05-05T18:43:36.568Z,5.53
2023-05-05T18:46:03.400Z,6.65
2023-05-05T18:48:30.349Z,6.43
2023-05-05T18:51:00.894Z,5.65
2023-05-05T18:53:29.554Z,5.07
2023-05-05T18:55:56.792Z,4.80
2023-05-05T18:58:23.603Z,3.00
2023-05-05T19:00:50.454Z,2.05
2023-05-05T19:03:17.258Z,1.73
2023-05-05T19:05:44.003Z,1.77
2023-05-05T19:08:10.862Z,0.25
2023-05-05T19:10:38.958Z,0.00
2023-05-05T19:13:05.756Z,0.00
2023-05-05T19:15:32.557Z,0.00
2023-05-05T19:17:59.382Z,0.00
2023-05-05T19:20:26.148Z,0.00
2023-05-05T19:22:52.925Z,0.40
2023-05-05T19:25:19.819Z,0.10
2023-05-05T19:27:47.937Z,0.00
2023-05-05T19:30:14.966Z,0.30
2023-05-05T19:32:41.854Z,0.08
2023-05-05T19:35:09.174Z,0.00
2023-05-05T19:37:36.155Z,0.00
2023-05-05T19:40:03.504Z,1.42
2023-05-05T19:42:30.279Z,2.00
2023-05-05T19:44:58.400Z,1.98
2023-05-05T19:47:25.265Z,1.58
2023-05-05T19:49:52.024Z,1.92
2023-05-05T19:52:18.750Z,1.70
2023-05-05T19:54:45.478Z,1.85
2023-05-05T19:57:12.266Z,1.88
2023-05-05T19:59:39.130Z,1.80
2023-05-05T20:02:07.530Z,1.40
2023-05-05T20:04:34.328Z,1.63
2023-05-05T20:07:01.087Z,1.27
2023-05-05T20:09:27.869Z,1.30
2023-05-05T20:11:55.149Z,1.83
2023-05-05T20:14:21.918Z,1.30
2023-05-05T20:16:48.707Z,1.40
2023-05-05T20:19:18.150Z,1.25
2023-05-05T20:21:44.938Z,1.30
2023-05-05T20:24:12.020Z,1.27
2023-05-05T20:26:38.779Z,1.23
2023-05-05T20:29:05.531Z,1.13
2023-05-05T20:31:32.310Z,1.42
2023-05-05T20:33:59.065Z,1.30
2023-05-05T20:36:27.274Z,1.40
2023-05-05T20:38:54.109Z,1.10
2023-05-05T20:41:20.875Z,1.20
2023-05-05T20:43:48.270Z,1.13
2023-05-05T20:46:15.084Z,0.93
2023-05-05T20:48:42.959Z,1.20
2023-05-05T20:51:10.077Z,1.50
2023-05-05T20:53:38.269Z,1.52
2023-05-05T20:56:06.435Z,1.10
2023-05-05T20:58:34.813Z,1.50
2023-05-05T21:01:01.847Z,1.30
2023-05-05T21:03:28.626Z,1.00
2023-05-05T21:05:55.500Z,1.10
2023-05-05T21:08:22.296Z,1.30
2023-05-05T21:10:50.363Z,1.40
2023-05-05T21:13:17.145Z,1.10
2023-05-05T21:15:43.997Z,1.48
2023-05-05T21:18:10.886Z,1.35
2023-05-05T21:20:37.654Z,1.30
2023-05-05T21:23:04.397Z,1.20
2023-05-05T21:25:31.308Z,1.33
2023-05-05T21:27:59.370Z,1.17
2023-05-05T21:30:26.261Z,1.35
2023-05-05T21:32:53.067Z,1.35
2023-05-05T21:35:19.976Z,1.58
2023-05-05T21:37:46.748Z,1.48
2023-05-05T21:40:14.136Z,1.45
2023-05-05T21:42:41.610Z,1.75
2023-05-05T21:45:11.499Z,1.23
2023-05-05T21:47:38.418Z,1.33
2023-05-05T21:50:06.147Z,1.30
2023-05-05T21:52:32.932Z,1.25
2023-05-05T21:54:59.641Z,1.50
2023-05-05T21:57:26.576Z,1.27
2023-05-05T21:59:53.336Z,1.33
2023-05-05T22:02:21.438Z,1.50
2023-05-05T22:04:50.846Z,1.35
2023-05-05T22:07:17.599Z,1.45
2023-05-05T22:09:44.466Z,1.30
2023-05-05T22:12:11.208Z,1.35
2023-05-05T22:14:37.957Z,1.20
2023-05-05T22:17:04.698Z,1.60
2023-05-05T22:19:32.789Z,1.60
2023-05-05T22:21:59.562Z,1.50
2023-05-05T22:24:26.351Z,1.58
2023-05-05T22:26:53.067Z,2.30
2023-05-05T22:29:19.913Z,2.00
2023-05-05T22:31:46.694Z,2.00
2023-05-05T22:34:13.713Z,1.90
2023-05-05T22:36:41.836Z,2.55
2023-05-05T22:39:08.612Z,2.20
2023-05-05T22:41:35.399Z,1.90
2023-05-05T22:44:02.321Z,2.00
2023-05-05T22:46:29.096Z,2.13
2023-05-05T22:48:55.832Z,1.90
2023-05-05T22:51:22.582Z,2.05
2023-05-05T22:53:50.705Z,2.00
2023-05-05T22:56:17.433Z,1.80
2023-05-05T22:58:44.432Z,2.13
2023-05-05T23:01:11.214Z,1.92
2023-05-05T23:03:38.044Z,2.15
2023-05-05T23:06:04.969Z,2.10
2023-05-05T23:08:31.727Z,2.00
2023-05-05T23:11:00.244Z,2.10
2023-05-05T23:13:26.973Z,2.00
2023-05-05T23:15:53.713Z,2.20
2023-05-05T23:18:20.518Z,2.08
2023-05-05T23:20:47.307Z,2.58
2023-05-05T23:23:14.043Z,2.03
2023-05-05T23:25:40.836Z,2.17
2023-05-05T23:28:08.963Z,2.42
2023-05-05T23:30:35.760Z,2.75
2023-05-05T23:33:03.509Z,2.70
2023-05-05T23:35:30.279Z,2.53
2023-05-05T23:37:57.065Z,2.58
2023-05-05T23:40:24.005Z,2.22
2023-05-05T23:42:50.823Z,2.13
2023-05-05T23:45:19.639Z,2.20
2023-05-05T23:47:46.490Z,2.17
2023-05-05T23:50:13.402Z,2.10
2023-05-05T23:52:40.199Z,2.22
2023-05-05T23:55:08.238Z,2.30
2023-05-05T23:57:35.338Z,2.50
